createdAt,value
2019-05-22T00:00:22.574Z,97160.72
2019-05-22T00:02:50.134Z,97158.27
2019-05-22T00:05:22.443Z,97156.63
2019-05-22T00:07:49.966Z,97151.66
2019-05-22T00:10:19.387Z,97155.84
2019-05-22T00:12:47.327Z,97156.33
2019-05-22T00:15:14.457Z,97159.66
2019-05-22T00:17:41.959Z,97153.70
2019-05-22T00:20:09.498Z,97163.28
2019-05-22T00:22:37.019Z,97155.23
2019-05-22T00:25:04.520Z,97158.84
2019-05-22T00:27:32.003Z,97159.60
2019-05-22T00:29:59.566Z,97163.93
2019-05-22T00:32:27.099Z,97162.16
2019-05-22T00:34:54.573Z,97173.75
2019-05-22T00:37:22.093Z,97175.06
2019-05-22T00:39:49.729Z,97176.31
2019-05-22T00:42:17.216Z,97178.39
2019-05-22T00:44:44.732Z,97176.00
2019-05-22T00:47:12.272Z,97174.20
2019-05-22T00:49:39.782Z,97177.62
2019-05-22T00:52:12.967Z,97173.42
2019-05-22T00:54:42.014Z,97169.81
2019-05-22T00:57:10.229Z,97174.63
2019-05-22T00:59:39.597Z,97177.12
2019-05-22T01:02:08.025Z,97181.31
2019-05-22T01:04:35.919Z,97179.20
2019-05-22T01:07:04.080Z,97178.58
2019-05-22T01:09:37.576Z,97181.98
2019-05-22T01:12:05.052Z,97180.31
2019-05-22T01:14:42.310Z,97183.08
2019-05-22T01:17:00.047Z,97184.48
2019-05-22T01:19:27.496Z,97187.85
2019-05-22T01:21:54.979Z,97189.00
2019-05-22T01:24:22.479Z,97187.19
2019-05-22T01:26:49.968Z,97174.11
2019-05-22T01:29:17.418Z,97185.30
2019-05-22T01:31:47.288Z,97193.03
2019-05-22T01:34:24.255Z,97191.09
2019-05-22T01:36:51.759Z,97193.43
2019-05-22T01:39:21.730Z,97204.94
2019-05-22T01:41:49.223Z,97207.28
2019-05-22T01:44:16.677Z,97209.75
2019-05-22T01:46:44.223Z,97204.00
2019-05-22T01:49:11.690Z,97209.39
2019-05-22T01:51:39.199Z,97213.13
2019-05-22T01:54:06.696Z,97209.17
2019-05-22T01:56:34.236Z,97207.66
2019-05-22T01:59:01.703Z,97210.87
2019-05-22T02:01:29.687Z,97210.78
2019-05-22T02:03:57.360Z,97213.49
2019-05-22T02:06:24.836Z,97215.12
2019-05-22T02:08:53.868Z,97204.94
2019-05-22T02:11:21.438Z,97209.81
2019-05-22T02:13:50.847Z,97208.33
2019-05-22T02:16:18.331Z,97209.20
2019-05-22T02:18:45.797Z,97206.15
2019-05-22T02:21:13.280Z,97200.83
2019-05-22T02:23:40.773Z,97197.11
2019-05-22T02:26:08.257Z,97192.55
2019-05-22T02:28:35.846Z,97196.23
2019-05-22T02:31:03.336Z,97195.40
2019-05-22T02:33:30.794Z,97198.19
2019-05-22T02:35:58.342Z,97199.67
2019-05-22T02:38:25.854Z,97195.97
2019-05-22T02:40:53.397Z,97198.03
2019-05-22T02:43:20.889Z,97194.81
2019-05-22T02:45:48.403Z,97202.74
2019-05-22T02:48:15.872Z,97194.18
2019-05-22T02:50:43.484Z,97203.13
2019-05-22T02:53:10.931Z,97197.97
2019-05-22T02:55:38.516Z,97199.54
2019-05-22T02:58:05.995Z,97206.27
2019-05-22T03:00:36.305Z,97206.66
2019-05-22T03:03:03.801Z,97212.59
2019-05-22T03:05:31.289Z,97205.86
2019-05-22T03:07:58.778Z,97204.48
2019-05-22T03:10:26.271Z,97203.20
2019-05-22T03:12:53.727Z,97210.66
2019-05-22T03:15:21.310Z,97211.95
2019-05-22T03:17:48.779Z,97204.25
2019-05-22T03:20:16.370Z,97204.37
2019-05-22T03:22:47.496Z,97212.29
2019-05-22T03:25:15.052Z,97215.65
2019-05-22T03:27:48.471Z,97219.02
2019-05-22T03:30:22.622Z,97212.86
2019-05-22T03:32:50.122Z,97211.49
2019-05-22T03:35:17.651Z,97213.04
2019-05-22T03:37:45.170Z,97211.02
2019-05-22T03:40:12.661Z,97208.33
2019-05-22T03:42:40.148Z,97213.14
2019-05-22T03:45:07.608Z,97214.84
2019-05-22T03:47:35.064Z,97213.75
2019-05-22T03:50:02.574Z,97219.91
2019-05-22T03:52:30.039Z,97218.39
2019-05-22T03:54:57.592Z,97219.51
2019-05-22T03:57:25.050Z,97225.06
2019-05-22T03:59:52.635Z,97222.38
2019-05-22T04:02:20.098Z,97223.76
2019-05-22T04:04:47.574Z,97224.66
2019-05-22T04:07:15.988Z,97230.42
2019-05-22T04:09:43.471Z,97234.44
2019-05-22T04:12:10.981Z,97227.05
2019-05-22T04:14:38.512Z,97222.92
2019-05-22T04:17:06.788Z,97221.48
2019-05-22T04:19:48.577Z,97226.89
2019-05-22T04:22:02.612Z,97227.34
2019-05-22T04:24:30.130Z,97235.06
2019-05-22T04:26:57.577Z,97234.27
2019-05-22T04:29:25.073Z,97236.55
2019-05-22T04:34:22.008Z,97246.84
2019-05-22T04:36:49.488Z,97242.96
2019-05-22T04:39:19.855Z,97245.62
2019-05-22T04:41:47.319Z,97244.89
2019-05-22T04:44:14.789Z,97247.27
2019-05-22T04:46:42.242Z,97247.27
2019-05-22T04:49:09.783Z,97248.27
2019-05-22T04:51:37.371Z,97256.70
2019-05-22T04:54:04.976Z,97261.64
2019-05-22T04:56:32.478Z,97255.73
2019-05-22T04:59:00.076Z,97254.32
2019-05-22T05:01:27.599Z,97257.17
2019-05-22T05:03:56.013Z,97253.76
2019-05-22T05:06:23.459Z,97256.21
2019-05-22T05:08:51.041Z,97258.02
2019-05-22T05:11:18.599Z,97259.66
2019-05-22T05:13:46.093Z,97252.61
2019-05-22T05:16:13.572Z,97257.69
2019-05-22T05:18:41.047Z,97259.07
2019-05-22T05:21:08.543Z,97257.25
2019-05-22T05:23:36.045Z,97255.91
2019-05-22T05:26:03.531Z,97255.21
2019-05-22T05:28:31.043Z,97258.41
2019-05-22T05:30:58.630Z,97257.30
2019-05-22T05:33:25.785Z,97256.10
2019-05-22T05:35:52.827Z,97253.28
2019-05-22T05:38:19.979Z,97261.31
2019-05-22T05:40:47.095Z,97261.84
2019-05-22T05:43:14.207Z,97270.25
2019-05-22T05:45:41.457Z,97267.05
2019-05-22T05:48:09.290Z,97268.84
2019-05-22T05:50:40.210Z,97265.97
2019-05-22T05:53:03.739Z,97270.35
2019-05-22T05:55:37.675Z,97269.99
2019-05-22T05:58:19.651Z,97270.48
2019-05-22T06:00:49.787Z,97274.88
2019-05-22T06:03:34.843Z,97279.98
2019-05-22T06:06:02.577Z,97276.92
2019-05-22T06:08:30.085Z,97280.52
2019-05-22T06:10:57.127Z,97283.61
2019-05-22T06:13:24.207Z,97282.18
2019-05-22T06:15:53.963Z,97280.89
2019-05-22T06:18:25.865Z,97283.00
2019-05-22T06:21:03.291Z,97284.84
2019-05-22T06:26:36.599Z,97276.77
2019-05-22T06:29:04.179Z,97282.13
2019-05-22T06:31:33.125Z,97279.09
2019-05-22T06:34:00.164Z,97273.03
2019-05-22T06:36:27.804Z,97274.44
2019-05-22T06:38:54.915Z,97279.22
2019-05-22T06:41:21.962Z,97273.48
2019-05-22T06:43:54.872Z,97275.31
2019-05-22T06:46:27.934Z,97279.95
2019-05-22T06:48:54.963Z,97277.44
2019-05-22T06:51:22.473Z,97278.07
2019-05-22T06:53:49.519Z,97273.91
2019-05-22T06:56:16.551Z,97280.13
2019-05-22T06:58:43.600Z,97275.97
2019-05-22T07:01:10.700Z,97274.34
2019-05-22T07:03:37.727Z,97278.91
2019-05-22T07:06:04.808Z,97283.27
2019-05-22T07:08:31.826Z,97284.38
2019-05-22T07:10:58.968Z,97283.36
2019-05-22T07:13:26.040Z,97275.73
2019-05-22T07:15:53.176Z,97276.53
2019-05-22T07:18:20.315Z,97279.92
2019-05-22T07:20:47.363Z,97272.30
2019-05-22T07:23:15.301Z,97277.84
2019-05-22T07:25:42.375Z,97280.95
2019-05-22T07:28:09.394Z,97286.08
2019-05-22T07:30:36.471Z,97275.27
2019-05-22T07:33:03.693Z,97282.84
2019-05-22T07:35:49.793Z,97278.55
2019-05-22T07:37:57.874Z,97268.92
2019-05-22T07:40:25.168Z,97279.77
2019-05-22T07:42:52.185Z,97277.66
2019-05-22T07:45:19.316Z,97270.80
2019-05-22T07:47:46.361Z,97269.12
2019-05-22T07:50:13.905Z,97269.83
2019-05-22T07:52:41.395Z,97266.23
2019-05-22T07:55:08.950Z,97267.75
2019-05-22T07:57:36.551Z,97267.98
2019-05-22T08:00:04.055Z,97270.41
2019-05-22T08:02:34.410Z,97272.02
2019-05-22T08:05:02.109Z,97265.25
2019-05-22T08:07:29.761Z,97256.09
2019-05-22T08:09:57.589Z,97259.98
2019-05-22T08:12:25.166Z,97256.86
2019-05-22T08:14:52.721Z,97258.23
2019-05-22T08:17:19.737Z,97254.56
2019-05-22T08:19:47.252Z,97253.42
2019-05-22T08:22:14.343Z,97256.17
2019-05-22T08:24:41.456Z,97254.61
2019-05-22T08:27:08.502Z,97257.34
2019-05-22T08:29:35.539Z,97255.22
2019-05-22T08:32:02.541Z,97254.94
2019-05-22T08:34:30.032Z,97251.95
2019-05-22T08:36:57.555Z,97264.05
2019-05-22T08:39:25.243Z,97261.46
2019-05-22T08:41:52.401Z,97266.95
2019-05-22T08:44:19.915Z,97270.77
2019-05-22T08:46:46.962Z,97258.62
2019-05-22T08:49:14.049Z,97259.11
2019-05-22T08:51:41.578Z,97267.77
2019-05-22T08:54:08.878Z,97263.61
2019-05-22T08:56:36.271Z,97267.19
2019-05-22T08:59:18.475Z,97258.77
2019-05-22T09:01:30.680Z,97265.17
2019-05-22T09:03:58.414Z,97254.72
2019-05-22T09:06:26.104Z,97257.13
2019-05-22T09:08:53.607Z,97250.16
2019-05-22T09:11:21.101Z,97253.01
2019-05-22T09:16:21.162Z,97249.69
2019-05-22T09:18:48.949Z,97247.98
2019-05-22T09:21:16.570Z,97248.49
2019-05-22T09:23:44.709Z,97247.77
2019-05-22T09:26:12.957Z,97245.94
2019-05-22T09:28:40.577Z,97254.12
2019-05-22T09:31:08.995Z,97257.15
2019-05-22T09:33:36.447Z,97240.11
2019-05-22T09:36:04.035Z,97247.02
2019-05-22T09:38:31.698Z,97243.70
2019-05-22T09:40:59.600Z,97236.80
2019-05-22T09:43:27.112Z,97248.84
2019-05-22T09:45:54.641Z,97253.31
2019-05-22T09:48:22.186Z,97251.91
2019-05-22T09:50:49.739Z,97248.50
2019-05-22T09:53:17.674Z,97242.14
2019-05-22T09:55:47.300Z,97243.66
2019-05-22T09:58:12.227Z,97239.91
2019-05-22T10:00:39.695Z,97244.23
2019-05-22T10:03:07.208Z,97237.77
2019-05-22T10:05:34.757Z,97246.01
2019-05-22T10:08:02.244Z,97234.83
2019-05-22T10:10:29.858Z,97238.53
2019-05-22T10:12:57.447Z,97242.86
2019-05-22T10:15:24.550Z,97243.03
2019-05-22T10:17:52.048Z,97239.38
2019-05-22T10:20:19.600Z,97231.80
2019-05-22T10:22:46.764Z,97235.97
2019-05-22T10:25:16.696Z,97237.60
2019-05-22T10:27:41.878Z,97245.52
2019-05-22T10:30:11.607Z,97237.47
2019-05-22T10:32:38.674Z,97237.95
2019-05-22T10:35:05.711Z,97239.44
2019-05-22T10:37:32.728Z,97228.52
2019-05-22T10:40:01.226Z,97227.73
2019-05-22T10:42:28.417Z,97233.98
2019-05-22T10:44:55.900Z,97228.11
2019-05-22T10:47:22.978Z,97230.78
2019-05-22T10:49:49.983Z,97223.84
2019-05-22T10:52:17.014Z,97228.11
2019-05-22T10:54:44.175Z,97225.19
2019-05-22T10:57:11.745Z,97222.42
2019-05-22T10:59:39.268Z,97217.77
2019-05-22T11:02:06.748Z,97219.41
2019-05-22T11:04:34.270Z,97216.28
2019-05-22T11:07:01.835Z,97210.43
2019-05-22T11:09:29.323Z,97207.67
2019-05-22T11:11:56.903Z,97208.61
2019-05-22T11:14:24.398Z,97206.52
2019-05-22T11:16:51.957Z,97212.66
2019-05-22T11:19:19.578Z,97211.12
2019-05-22T11:21:47.115Z,97204.14
2019-05-22T11:24:14.657Z,97201.35
2019-05-22T11:26:42.131Z,97204.70
2019-05-22T11:29:10.043Z,97201.89
2019-05-22T11:31:37.541Z,97202.77
2019-05-22T11:34:05.079Z,97204.66
2019-05-22T11:36:32.544Z,97204.00
2019-05-22T11:39:00.097Z,97203.77
2019-05-22T11:41:27.657Z,97204.16
2019-05-22T11:43:55.265Z,97206.80
2019-05-22T11:46:22.776Z,97201.47
2019-05-22T11:48:50.274Z,97207.59
2019-05-22T11:51:17.768Z,97206.16
2019-05-22T11:53:45.260Z,97201.90
2019-05-22T11:56:13.027Z,97196.48
2019-05-22T11:58:40.585Z,97208.06
2019-05-22T12:01:08.404Z,97200.34
2019-05-22T12:03:36.129Z,97204.28
2019-05-22T12:06:03.640Z,97202.30
2019-05-22T12:08:31.124Z,97202.03
2019-05-22T12:10:58.607Z,97203.09
2019-05-22T12:13:26.188Z,97202.31
2019-05-22T12:15:53.620Z,97200.86
2019-05-22T12:18:21.169Z,97193.45
2019-05-22T12:20:48.837Z,97200.34
2019-05-22T12:23:16.274Z,97198.73
2019-05-22T12:25:43.712Z,97196.16
2019-05-22T12:28:11.202Z,97195.11
2019-05-22T12:30:38.655Z,97203.75
2019-05-22T12:33:13.307Z,97200.69
2019-05-22T12:35:34.155Z,97202.23
2019-05-22T12:38:01.852Z,97202.44
2019-05-22T12:40:29.352Z,97195.70
2019-05-22T12:42:56.971Z,97204.71
2019-05-22T12:45:24.541Z,97201.34
2019-05-22T12:47:52.049Z,97197.05
2019-05-22T12:50:19.558Z,97200.21
2019-05-22T12:52:47.299Z,97192.51
2019-05-22T12:55:14.774Z,97192.91
2019-05-22T12:57:42.255Z,97190.66
2019-05-22T13:00:09.745Z,97189.31
2019-05-22T13:02:42.139Z,97184.05
2019-05-22T13:05:06.247Z,97188.98
2019-05-22T13:07:33.753Z,97187.39
2019-05-22T13:10:01.241Z,97176.19
2019-05-22T13:12:28.808Z,97185.60
2019-05-22T13:15:09.165Z,97185.53
2019-05-22T13:17:23.792Z,97174.63
2019-05-22T13:19:51.307Z,97180.58
2019-05-22T13:22:18.817Z,97168.33
2019-05-22T13:24:46.280Z,97177.20
2019-05-22T13:27:13.780Z,97177.27
2019-05-22T13:29:41.238Z,97170.20
2019-05-22T13:32:08.803Z,97172.75
2019-05-22T13:34:36.382Z,97169.09
2019-05-22T13:37:04.352Z,97174.29
2019-05-22T13:39:32.080Z,97178.86
2019-05-22T13:41:59.896Z,97180.83
2019-05-22T13:44:27.408Z,97175.16
2019-05-22T13:46:55.035Z,97170.75
2019-05-22T13:49:22.591Z,97176.56
2019-05-22T13:51:50.320Z,97170.52
2019-05-22T13:54:18.019Z,97169.04
2019-05-22T13:56:45.619Z,97160.92
2019-05-22T13:59:13.335Z,97165.59
2019-05-22T14:01:40.989Z,97164.81
2019-05-22T14:04:08.488Z,97163.41
2019-05-22T14:06:36.110Z,97161.05
2019-05-22T14:09:03.987Z,97158.66
2019-05-22T14:11:31.169Z,97160.88
2019-05-22T14:13:58.685Z,97161.97
2019-05-22T14:16:26.451Z,97162.56
2019-05-22T14:18:54.063Z,97157.91
2019-05-22T14:21:21.602Z,97150.07
2019-05-22T14:23:49.454Z,97160.52
2019-05-22T14:26:17.950Z,97156.21
2019-05-22T14:28:45.596Z,97160.28
2019-05-22T14:31:13.191Z,97155.52
2019-05-22T14:33:41.012Z,97160.00
2019-05-22T14:36:08.557Z,97157.94
2019-05-22T14:38:36.097Z,97156.63
2019-05-22T14:41:03.634Z,97160.75
2019-05-22T14:43:31.110Z,97163.65
2019-05-22T14:45:58.795Z,97158.18
2019-05-22T14:48:26.484Z,97157.56
2019-05-22T14:50:54.084Z,97155.84
2019-05-22T14:53:22.116Z,97152.95
2019-05-22T14:55:49.582Z,97148.69
2019-05-22T14:58:17.077Z,97152.95
2019-05-22T15:00:45.210Z,97151.59
2019-05-22T15:03:12.701Z,97154.28
2019-05-22T15:05:40.258Z,97147.14
2019-05-22T15:08:07.739Z,97146.84
2019-05-22T15:10:35.751Z,97144.73
2019-05-22T15:13:03.219Z,97144.16
2019-05-22T15:15:30.760Z,97140.67
2019-05-22T15:17:58.273Z,97138.64
2019-05-22T15:20:26.650Z,97143.33
2019-05-22T15:22:56.309Z,97145.10
2019-05-22T15:25:21.695Z,97147.02
2019-05-22T15:27:49.180Z,97144.25
2019-05-22T15:30:16.752Z,97138.75
2019-05-22T15:32:44.436Z,97139.89
2019-05-22T15:35:11.968Z,97140.45
2019-05-22T15:40:12.299Z,97146.80
2019-05-22T15:42:40.713Z,97141.34
2019-05-22T15:45:08.303Z,97145.16
2019-05-22T15:47:52.276Z,97142.27
2019-05-22T15:50:03.641Z,97143.86
2019-05-22T15:52:31.159Z,97143.16
2019-05-22T15:54:58.605Z,97143.68
2019-05-22T15:57:26.973Z,97144.69
2019-05-22T15:59:54.475Z,97139.46
2019-05-22T16:02:22.199Z,97141.88
2019-05-22T16:04:49.555Z,97133.95
2019-05-22T16:07:17.658Z,97132.75
2019-05-22T16:09:45.622Z,97132.08
2019-05-22T16:12:12.709Z,97132.25
2019-05-22T16:14:40.167Z,97130.34
2019-05-22T16:19:41.197Z,97131.80
2019-05-22T16:22:08.675Z,97123.14
2019-05-22T16:24:36.179Z,97117.14
2019-05-22T16:27:03.716Z,97121.23
2019-05-22T16:29:30.824Z,97122.91
2019-05-22T16:31:57.871Z,97120.98
2019-05-22T16:34:28.444Z,97131.44
2019-05-22T16:36:53.328Z,97129.56
2019-05-22T16:39:20.822Z,97126.38
2019-05-22T16:41:48.326Z,97130.39
2019-05-22T16:44:15.974Z,97134.17
2019-05-22T16:46:43.465Z,97131.04
2019-05-22T16:49:10.959Z,97132.70
2019-05-22T16:51:38.497Z,97134.94
2019-05-22T16:54:06.698Z,97139.16
2019-05-22T16:56:33.777Z,97136.55
2019-05-22T16:59:00.758Z,97142.02
2019-05-22T17:01:29.031Z,97130.63
2019-05-22T17:03:56.582Z,97135.70
2019-05-22T17:06:24.112Z,97135.00
2019-05-22T17:08:51.624Z,97138.09
2019-05-22T17:11:19.608Z,97133.71
2019-05-22T17:13:47.109Z,97130.49
2019-05-22T17:16:14.130Z,97134.21
2019-05-22T17:18:47.766Z,97131.00
2019-05-22T17:21:08.398Z,97130.30
2019-05-22T17:23:35.421Z,97130.65
2019-05-22T17:26:02.417Z,97130.63
2019-05-22T17:28:29.506Z,97126.38
2019-05-22T17:30:56.526Z,97127.77
2019-05-22T17:33:23.631Z,97130.25
2019-05-22T17:35:50.735Z,97129.95
2019-05-22T17:38:17.743Z,97138.69
2019-05-22T17:40:44.816Z,97136.48
2019-05-22T17:43:11.904Z,97140.56
2019-05-22T17:45:38.962Z,97144.53
2019-05-22T17:48:06.523Z,97146.47
2019-05-22T17:50:33.997Z,97146.11
2019-05-22T17:53:01.558Z,97142.66
2019-05-22T17:55:29.048Z,97149.24
2019-05-22T17:57:56.700Z,97149.34
2019-05-22T18:00:27.267Z,97159.30
2019-05-22T18:02:54.765Z,97150.78
2019-05-22T18:05:22.407Z,97158.86
2019-05-22T18:07:49.888Z,97158.63
2019-05-22T18:10:17.023Z,97163.36
2019-05-22T18:12:44.529Z,97165.73
2019-05-22T18:15:11.983Z,97164.22
2019-05-22T18:17:39.732Z,97168.56
2019-05-22T18:20:07.291Z,97166.06
2019-05-22T18:22:34.777Z,97172.44
2019-05-22T18:25:02.309Z,97179.98
2019-05-22T18:27:30.071Z,97174.14
2019-05-22T18:29:57.552Z,97180.40
2019-05-22T18:32:27.281Z,97175.86
2019-05-22T18:34:54.752Z,97178.48
2019-05-22T18:37:22.291Z,97179.61
2019-05-22T18:39:49.774Z,97184.03
2019-05-22T18:42:17.235Z,97178.77
2019-05-22T18:44:44.796Z,97188.68
2019-05-22T18:47:12.278Z,97186.34
2019-05-22T18:49:39.821Z,97188.98
2019-05-22T18:52:07.306Z,97189.77
2019-05-22T18:54:36.206Z,97187.95
2019-05-22T18:57:03.817Z,97192.42
2019-05-22T18:59:31.278Z,97192.37
2019-05-22T19:01:58.816Z,97194.78
2019-05-22T19:04:26.437Z,97193.39
2019-05-22T19:06:56.007Z,97201.53
2019-05-22T19:09:22.813Z,97208.86
2019-05-22T19:11:50.542Z,97206.34
2019-05-22T19:14:18.052Z,97209.20
2019-05-22T19:16:45.750Z,97215.83
2019-05-22T19:19:13.207Z,97223.27
2019-05-22T19:21:40.801Z,97225.73
2019-05-22T19:24:08.301Z,97227.73
2019-05-22T19:26:35.809Z,97233.47
2019-05-22T19:29:03.378Z,97232.65
2019-05-22T19:31:30.935Z,97236.84
2019-05-22T19:33:58.397Z,97238.51
2019-05-22T19:36:25.903Z,97244.93
2019-05-22T19:38:53.384Z,97245.98
2019-05-22T19:41:20.891Z,97244.17
2019-05-22T19:43:48.562Z,97240.41
2019-05-22T19:46:16.199Z,97248.41
2019-05-22T19:48:43.694Z,97252.62
2019-05-22T19:51:11.182Z,97251.43
2019-05-22T19:53:38.703Z,97255.22
2019-05-22T19:56:06.193Z,97254.31
2019-05-22T19:58:33.711Z,97259.25
2019-05-22T20:01:01.217Z,97258.81
2019-05-22T20:03:28.703Z,97263.16
2019-05-22T20:05:56.241Z,97261.55
2019-05-22T20:08:23.808Z,97258.98
2019-05-22T20:10:51.322Z,97265.53
2019-05-22T20:13:18.823Z,97267.90
2019-05-22T20:15:46.304Z,97274.13
2019-05-22T20:18:13.794Z,97275.37
2019-05-22T20:20:41.311Z,97289.53
2019-05-22T20:23:08.878Z,97280.83
2019-05-22T20:25:36.406Z,97277.73
2019-05-22T20:28:04.014Z,97281.30
2019-05-22T20:30:31.731Z,97284.98
2019-05-22T20:32:59.205Z,97287.50
2019-05-22T20:35:26.689Z,97288.13
2019-05-22T20:37:54.243Z,97288.95
2019-05-22T20:40:21.716Z,97292.17
2019-05-22T20:42:49.180Z,97286.30
2019-05-22T20:45:16.672Z,97284.48
2019-05-22T20:47:44.148Z,97286.09
2019-05-22T20:50:11.614Z,97286.16
2019-05-22T20:52:39.408Z,97285.66
2019-05-22T20:55:06.973Z,97289.84
2019-05-22T20:57:34.429Z,97288.09
2019-05-22T21:00:01.996Z,97286.56
2019-05-22T21:02:29.452Z,97286.06
2019-05-22T21:04:56.969Z,97291.86
2019-05-22T21:07:24.465Z,97287.09
2019-05-22T21:09:52.115Z,97284.84
2019-05-22T21:12:19.772Z,97287.19
2019-05-22T21:14:47.247Z,97291.46
2019-05-22T21:17:14.702Z,97293.55
2019-05-22T21:19:42.215Z,97289.52
2019-05-22T21:22:09.930Z,97295.45
2019-05-22T21:24:37.425Z,97295.73
2019-05-22T21:27:05.068Z,97296.45
2019-05-22T21:29:32.579Z,97302.97
2019-05-22T21:32:00.059Z,97301.70
2019-05-22T21:34:27.526Z,97297.88
2019-05-22T21:36:55.204Z,97289.42
2019-05-22T21:39:22.758Z,97287.31
2019-05-22T21:41:50.383Z,97289.81
2019-05-22T21:44:17.878Z,97286.15
2019-05-22T21:46:45.373Z,97291.83
2019-05-22T21:49:13.034Z,97290.73
2019-05-22T21:51:40.514Z,97288.68
2019-05-22T21:54:07.990Z,97286.61
2019-05-22T21:56:35.504Z,97286.89
2019-05-22T21:59:03.434Z,97283.98
2019-05-22T22:01:31.025Z,97278.17
2019-05-22T22:03:59.071Z,97278.14
2019-05-22T22:06:26.568Z,97279.47
2019-05-22T22:08:54.064Z,97274.38
2019-05-22T22:11:22.240Z,97272.64
2019-05-22T22:13:49.755Z,97280.73
2019-05-22T22:16:17.236Z,97274.80
2019-05-22T22:18:44.949Z,97284.09
2019-05-22T22:21:12.430Z,97281.78
2019-05-22T22:23:39.948Z,97286.61
2019-05-22T22:26:24.244Z,97289.30
2019-05-22T22:28:35.319Z,97286.95
2019-05-22T22:31:02.846Z,97291.91
2019-05-22T22:33:30.322Z,97291.67
2019-05-22T22:35:57.801Z,97293.55
2019-05-22T22:38:26.201Z,97302.43
2019-05-22T22:40:53.802Z,97295.25
2019-05-22T22:43:21.311Z,97296.89
2019-05-22T22:48:41.380Z,97301.06
2019-05-22T22:51:08.844Z,97290.98
2019-05-22T22:53:36.315Z,97286.19
2019-05-22T22:56:03.821Z,97284.26
2019-05-22T22:58:31.345Z,97289.17
2019-05-22T23:00:59.437Z,97293.74
2019-05-22T23:03:27.113Z,97293.06
2019-05-22T23:05:54.613Z,97290.91
2019-05-22T23:08:22.114Z,97291.47
2019-05-22T23:10:49.589Z,97288.41
2019-05-22T23:13:17.060Z,97289.28
2019-05-22T23:15:44.518Z,97294.00
2019-05-22T23:18:12.019Z,97296.87
2019-05-22T23:20:38.976Z,97299.17
2019-05-22T23:23:06.186Z,97294.84
2019-05-22T23:25:33.667Z,97286.27
2019-05-22T23:28:01.160Z,97293.53
2019-05-22T23:30:28.622Z,97288.15
2019-05-22T23:32:56.105Z,97289.19
2019-05-22T23:35:23.562Z,97298.19
2019-05-22T23:37:51.326Z,97301.08
2019-05-22T23:40:18.851Z,97296.61
2019-05-22T23:42:46.304Z,97299.55
2019-05-22T23:45:13.752Z,97307.23
2019-05-22T23:47:53.139Z,97303.94
2019-05-22T23:50:20.961Z,97304.81
2019-05-22T23:52:48.485Z,97307.91
2019-05-22T23:55:15.938Z,97302.22
2019-05-22T23:57:43.481Z,97299.66
